Louis Cristal — 9HA2978 — position and weather

sailwx.info

Track history (hours):
 
Tides and Currents Weather Stations Pressure Air Temp Water Temp Dewpoint Dewpoint Depression Visibility Wind Speed Wind Dir Waves Ship Positions

Louis Cristal

Last reported at 2014-Sep-19 01:26 UTC. Time now 2014-Sep-19 01:55 UTC.
Position N 37°31' E 024°15'.

Length 162 m; draft 6 m.

Type: Passenger vessel. MMSI: 229001000.

Date/timePositionNaut miles runAvg speedWind from/ knotsBaromVisibWave heightAir tempDewpointWater temp
2014-Sep-19 01:26N 37°31' E 024°15'1112.4
2014-Sep-19 00:33N 37°31' E 024°29'1212.2
2014-Sep-18 23:32N 37°32' E 024°45'1211.7
2014-Sep-18 22:33N 37°31' E 024°59'1211.8
2014-Sep-18 21:34N 37°28' E 025°14'5 4.8
2014-Sep-18 20:33N 37°28' E 025°20'0 0.0
2014-Sep-18 19:27N 37°28' E 025°20'0 0.0
2014-Sep-18 18:33N 37°28' E 025°20'0 0.0
2014-Sep-18 17:33N 37°28' E 025°20'0 0.0
2014-Sep-18 16:33N 37°28' E 025°20'0 0.0
2014-Sep-18 15:30N 37°28' E 025°20'0 0.0
2014-Sep-18 14:33N 37°28' E 025°20'7 6.6
2014-Sep-18 13:33N 37°34' E 025°22'1515.4
2014-Sep-18 12:33N 37°45' E 025°36'58 4.4
2014-Sep-17 23:26N 37°27' E 026°46'123 2.6
2014-Sep-15 23:32N 35°36' E 025°41'7 6.9
2014-Sep-15 22:33N 35°42' E 025°38'7 6.7
2014-Sep-15 21:34N 35°48' E 025°35'7 6.7
2014-Sep-15 20:33N 35°55' E 025°32'6 6.4
2014-Sep-15 19:34N 36°01' E 025°29'6 6.3
2014-Sep-15 18:33N 36°07' E 025°27'6 6.4
2014-Sep-15 17:33N 36°13' E 025°24'7 6.5
2014-Sep-15 16:33N 36°19' E 025°22'7 6.6
2014-Sep-15 15:34N 36°25' E 025°25'0 0.1
2014-Sep-15 14:29N 36°25' E 025°25'0 0.0
2014-Sep-15 13:29N 36°25' E 025°25'0 0.0
2014-Sep-15 12:29N 36°25' E 025°25'0 0.0
2014-Sep-15 11:29N 36°25' E 025°25'0 0.0
2014-Sep-15 10:29N 36°25' E 025°25'0 0.0
2014-Sep-15 09:32N 36°25' E 025°25'0 0.0
2014-Sep-15 08:29N 36°25' E 025°25'0 0.0
2014-Sep-15 07:26N 36°25' E 025°25'0 0.0
2014-Sep-15 06:29N 36°25' E 025°25'0 0.0
2014-Sep-15 05:26N 36°25' E 025°25'6 6.9
2014-Sep-15 04:33N 36°30' E 025°22'1312.8
2014-Sep-15 03:33N 36°40' E 025°33'1414.0
2014-Sep-15 02:34N 36°51' E 025°44'1211.8
2014-Sep-15 01:34N 36°59' E 025°55'1211.8
2014-Sep-15 00:34N 37°06' E 026°07'1211.8
2014-Sep-14 23:34N 37°14' E 026°17'1211.9
2014-Sep-14 22:34N 37°22' E 026°29'1212.1
2014-Sep-14 21:34N 37°29' E 026°41'33 3.3
2014-Sep-14 11:33N 37°54' E 027°08'8614.4
2014-Sep-14 05:32N 38°60' E 025°56'17113.8
2014-Sep-13 17:10N 40°54' E 028°42'1016.8
2014-Sep-13 16:33N 40°56' E 028°55'7 0.6
2014-Sep-13 05:32N 41°02' E 029°00'1313.2
2014-Sep-13 04:33N 40°52' E 028°49'16615.1
2014-Sep-12 17:33N 39°32' E 025°38'3716.9
2014-Sep-12 15:22N 38°59' E 025°17'97 7.5
2014-Sep-12 02:20N 37°40' E 024°05'911.0
2014-Sep-12 01:33N 37°33' E 024°12'1110.8
2014-Sep-12 00:33N 37°31' E 024°25'1212.0
2014-Sep-11 23:33N 37°31' E 024°40'1212.1
2014-Sep-11 22:33N 37°32' E 024°55'1212.3
2014-Sep-11 21:33N 37°29' E 025°11'7 6.9
2014-Sep-11 20:32N 37°28' E 025°20'0 0.0
2014-Sep-11 19:32N 37°28' E 025°20'0 0.0
2014-Sep-11 18:32N 37°28' E 025°20'0 0.0
2014-Sep-11 17:32N 37°28' E 025°20'0 0.0
2014-Sep-11 16:32N 37°28' E 025°20'0 0.0
2014-Sep-11 15:32N 37°28' E 025°20'0 0.0
2014-Sep-11 14:32N 37°28' E 025°20'5 5.3
2014-Sep-11 13:32N 37°33' E 025°21'1616.4
2014-Sep-11 12:33N 37°44' E 025°35'1514.7
2014-Sep-11 11:33N 37°55' E 025°48'25 2.7
2014-Sep-11 02:22N 38°06' E 026°16'2116.2
2014-Sep-11 01:06N 37°47' E 026°28'1115.8
2014-Sep-11 00:25N 37°38' E 026°35'1315.7
2014-Sep-10 23:33N 37°27' E 026°46'2315.9
2014-Sep-10 22:05N 37°07' E 026°60'  
Track history (hours):
 
Tides and Currents Weather Stations Pressure Air Temp Water Temp Dewpoint Dewpoint Depression Visibility Wind Speed Wind Dir Waves Ship Positions

Louis Cristal

Last reported at 2014-Sep-19 01:26 UTC. Time now 2014-Sep-19 01:55 UTC.
Position N 37°31' E 024°15'.

Length 162 m; draft 6 m.

Type: Passenger vessel. MMSI: 229001000.

Date/timePositionNaut miles runAvg speedWind from/ knotsBaromVisibWave heightAir tempDewpointWater temp
2014-Sep-19 01:26N 37°31' E 024°15'1112.4
2014-Sep-19 00:33N 37°31' E 024°29'1212.2
2014-Sep-18 23:32N 37°32' E 024°45'1211.7
2014-Sep-18 22:33N 37°31' E 024°59'1211.8
2014-Sep-18 21:34N 37°28' E 025°14'5 4.8
2014-Sep-18 20:33N 37°28' E 025°20'0 0.0
2014-Sep-18 19:27N 37°28' E 025°20'0 0.0
2014-Sep-18 18:33N 37°28' E 025°20'0 0.0
2014-Sep-18 17:33N 37°28' E 025°20'0 0.0
2014-Sep-18 16:33N 37°28' E 025°20'0 0.0
2014-Sep-18 15:30N 37°28' E 025°20'0 0.0
2014-Sep-18 14:33N 37°28' E 025°20'7 6.6
2014-Sep-18 13:33N 37°34' E 025°22'1515.4
2014-Sep-18 12:33N 37°45' E 025°36'58 4.4
2014-Sep-17 23:26N 37°27' E 026°46'123 2.6
2014-Sep-15 23:32N 35°36' E 025°41'7 6.9
2014-Sep-15 22:33N 35°42' E 025°38'7 6.7
2014-Sep-15 21:34N 35°48' E 025°35'7 6.7
2014-Sep-15 20:33N 35°55' E 025°32'6 6.4
2014-Sep-15 19:34N 36°01' E 025°29'6 6.3
2014-Sep-15 18:33N 36°07' E 025°27'6 6.4
2014-Sep-15 17:33N 36°13' E 025°24'7 6.5
2014-Sep-15 16:33N 36°19' E 025°22'7 6.6
2014-Sep-15 15:34N 36°25' E 025°25'0 0.1
2014-Sep-15 14:29N 36°25' E 025°25'0 0.0
2014-Sep-15 13:29N 36°25' E 025°25'0 0.0
2014-Sep-15 12:29N 36°25' E 025°25'0 0.0
2014-Sep-15 11:29N 36°25' E 025°25'0 0.0
2014-Sep-15 10:29N 36°25' E 025°25'0 0.0
2014-Sep-15 09:32N 36°25' E 025°25'0 0.0
2014-Sep-15 08:29N 36°25' E 025°25'0 0.0
2014-Sep-15 07:26N 36°25' E 025°25'0 0.0
2014-Sep-15 06:29N 36°25' E 025°25'0 0.0
2014-Sep-15 05:26N 36°25' E 025°25'6 6.9
2014-Sep-15 04:33N 36°30' E 025°22'1312.8
2014-Sep-15 03:33N 36°40' E 025°33'1414.0
2014-Sep-15 02:34N 36°51' E 025°44'1211.8
2014-Sep-15 01:34N 36°59' E 025°55'1211.8
2014-Sep-15 00:34N 37°06' E 026°07'1211.8
2014-Sep-14 23:34N 37°14' E 026°17'1211.9
2014-Sep-14 22:34N 37°22' E 026°29'1212.1
2014-Sep-14 21:34N 37°29' E 026°41'33 3.3
2014-Sep-14 11:33N 37°54' E 027°08'8614.4
2014-Sep-14 05:32N 38°60' E 025°56'17113.8
2014-Sep-13 17:10N 40°54' E 028°42'1016.8
2014-Sep-13 16:33N 40°56' E 028°55'7 0.6
2014-Sep-13 05:32N 41°02' E 029°00'1313.2
2014-Sep-13 04:33N 40°52' E 028°49'16615.1
2014-Sep-12 17:33N 39°32' E 025°38'3716.9
2014-Sep-12 15:22N 38°59' E 025°17'97 7.5
2014-Sep-12 02:20N 37°40' E 024°05'911.0
2014-Sep-12 01:33N 37°33' E 024°12'1110.8
2014-Sep-12 00:33N 37°31' E 024°25'1212.0
2014-Sep-11 23:33N 37°31' E 024°40'1212.1
2014-Sep-11 22:33N 37°32' E 024°55'1212.3
2014-Sep-11 21:33N 37°29' E 025°11'7 6.9
2014-Sep-11 20:32N 37°28' E 025°20'0 0.0
2014-Sep-11 19:32N 37°28' E 025°20'0 0.0
2014-Sep-11 18:32N 37°28' E 025°20'0 0.0
2014-Sep-11 17:32N 37°28' E 025°20'0 0.0
2014-Sep-11 16:32N 37°28' E 025°20'0 0.0
2014-Sep-11 15:32N 37°28' E 025°20'0 0.0
2014-Sep-11 14:32N 37°28' E 025°20'5 5.3
2014-Sep-11 13:32N 37°33' E 025°21'1616.4
2014-Sep-11 12:33N 37°44' E 025°35'1514.7
2014-Sep-11 11:33N 37°55' E 025°48'25 2.7
2014-Sep-11 02:22N 38°06' E 026°16'2116.2
2014-Sep-11 01:06N 37°47' E 026°28'1115.8
2014-Sep-11 00:25N 37°38' E 026°35'1315.7
2014-Sep-10 23:33N 37°27' E 026°46'2315.9
2014-Sep-10 22:05N 37°07' E 026°60'  

Dump ship's entire track history